createdAt,value
2023-02-11T00:00:28.738Z,8.30
2023-02-11T00:02:55.326Z,8.20
2023-02-11T00:05:24.415Z,8.30
2023-02-11T00:07:50.973Z,8.30
2023-02-11T00:10:17.579Z,8.30
2023-02-11T00:12:44.202Z,8.30
2023-02-11T00:15:29.559Z,8.40
2023-02-11T00:17:56.171Z,8.30
2023-02-11T00:20:22.754Z,8.40
2023-02-11T00:22:49.342Z,8.40
2023-02-11T00:25:16.042Z,8.40
2023-02-11T00:27:42.663Z,8.40
2023-02-11T00:30:09.280Z,8.40
2023-02-11T00:32:35.949Z,8.40
2023-02-11T00:35:03.757Z,8.40
2023-02-11T00:37:31.995Z,8.40
2023-02-11T00:39:58.580Z,8.40
2023-02-11T00:42:25.153Z,8.40
2023-02-11T00:44:52.966Z,8.40
2023-02-11T00:47:19.609Z,8.40
2023-02-11T00:49:46.190Z,8.40
2023-02-11T00:52:12.911Z,8.40
2023-02-11T00:54:41.852Z,8.40
2023-02-11T00:57:08.454Z,8.40
2023-02-11T00:59:35.083Z,8.40
2023-02-11T01:02:01.663Z,8.40
2023-02-11T01:04:28.332Z,8.30
2023-02-11T01:06:54.938Z,8.40
2023-02-11T01:09:21.615Z,8.40
2023-02-11T01:11:48.198Z,8.40
2023-02-11T01:14:14.796Z,8.40
2023-02-11T01:16:42.571Z,8.40
2023-02-11T01:19:09.844Z,8.40
2023-02-11T01:21:36.707Z,8.40
2023-02-11T01:24:03.441Z,8.30
2023-02-11T01:26:48.905Z,8.40
2023-02-11T01:29:15.531Z,8.40
2023-02-11T01:31:42.149Z,8.40
2023-02-11T01:34:08.800Z,8.40
2023-02-11T01:36:37.260Z,8.40
2023-02-11T01:39:03.865Z,8.40
2023-02-11T01:41:30.471Z,8.40
2023-02-11T01:43:57.500Z,8.40
2023-02-11T01:46:24.446Z,8.40
2023-02-11T01:48:51.630Z,8.30
2023-02-11T01:51:20.736Z,8.40
2023-02-11T01:54:06.194Z,8.40
2023-02-11T01:56:51.888Z,8.40
2023-02-11T01:59:18.486Z,8.40
2023-02-11T02:01:45.086Z,8.40
2023-02-11T02:04:11.771Z,8.40
2023-02-11T02:06:57.392Z,8.40
2023-02-11T02:09:24.065Z,8.40
2023-02-11T02:11:50.661Z,8.40
2023-02-11T02:14:17.306Z,8.40
2023-02-11T02:16:45.162Z,8.40
2023-02-11T02:19:11.870Z,8.40
2023-02-11T02:21:38.448Z,8.40
2023-02-11T02:24:05.029Z,8.40
2023-02-11T02:26:32.793Z,8.40
2023-02-11T02:28:59.430Z,8.40
2023-02-11T02:31:26.044Z,8.40
2023-02-11T02:33:52.708Z,8.40
2023-02-11T02:36:20.489Z,8.40
2023-02-11T02:38:48.463Z,8.40
2023-02-11T02:41:15.589Z,8.40
2023-02-11T02:43:42.189Z,8.40
2023-02-11T02:46:10.102Z,8.40
2023-02-11T02:48:36.715Z,8.40
2023-02-11T02:51:03.275Z,8.40
2023-02-11T02:53:29.882Z,8.40
2023-02-11T02:55:57.698Z,8.50
2023-02-11T02:58:24.325Z,8.40
2023-02-11T03:00:50.976Z,8.40
2023-02-11T03:03:17.572Z,8.40
2023-02-11T03:05:44.500Z,8.40
2023-02-11T03:08:11.110Z,8.40
2023-02-11T03:10:37.737Z,8.40
2023-02-11T03:13:04.413Z,8.40
2023-02-11T03:15:32.121Z,8.40
2023-02-11T03:17:58.781Z,8.40
2023-02-11T03:20:25.363Z,8.40
2023-02-11T03:22:51.990Z,8.30
2023-02-11T03:25:19.809Z,8.30
2023-02-11T03:27:46.374Z,8.30
2023-02-11T03:30:12.956Z,8.30
2023-02-11T03:32:39.542Z,8.30
2023-02-11T03:35:06.248Z,8.30
2023-02-11T03:37:32.817Z,8.30
2023-02-11T03:39:59.389Z,8.30
2023-02-11T03:42:26.034Z,8.30
2023-02-11T03:44:52.854Z,8.30
2023-02-11T03:47:19.464Z,8.30
2023-02-11T03:49:46.177Z,8.30
2023-02-11T03:52:12.835Z,8.30
2023-02-11T03:54:40.688Z,8.30
2023-02-11T03:57:07.516Z,8.30
2023-02-11T03:59:34.102Z,8.30
2023-02-11T04:02:00.711Z,8.30
2023-02-11T04:04:27.370Z,8.20
2023-02-11T04:06:53.958Z,8.20
2023-02-11T04:09:20.582Z,8.10
2023-02-11T04:11:47.223Z,8.10
2023-02-11T04:14:13.812Z,8.00
2023-02-11T04:16:40.609Z,8.00
2023-02-11T04:19:07.277Z,8.00
2023-02-11T04:21:33.884Z,7.90
2023-02-11T04:24:00.452Z,8.00
2023-02-11T04:26:27.422Z,8.00
2023-02-11T04:28:53.992Z,8.00
2023-02-11T04:31:20.765Z,8.10
2023-02-11T04:33:47.461Z,8.10
2023-02-11T04:36:32.758Z,8.10
2023-02-11T04:38:59.346Z,8.10
2023-02-11T04:41:25.944Z,8.10
2023-02-11T04:43:52.552Z,8.10
2023-02-11T04:46:38.265Z,8.10
2023-02-11T04:49:05.494Z,8.10
2023-02-11T04:51:32.071Z,8.10
2023-02-11T04:53:58.671Z,8.10
2023-02-11T04:56:27.522Z,8.20
2023-02-11T04:58:54.160Z,8.20
2023-02-11T05:01:20.793Z,8.20
2023-02-11T05:03:47.427Z,8.20
2023-02-11T05:06:15.253Z,8.20
2023-02-11T05:08:41.874Z,8.20
2023-02-11T05:11:08.452Z,8.20
2023-02-11T05:13:35.126Z,8.20
2023-02-11T05:16:02.949Z,8.20
2023-02-11T05:18:29.578Z,8.20
2023-02-11T05:20:56.197Z,8.20
2023-02-11T05:23:22.868Z,8.30
2023-02-11T05:25:50.088Z,8.30
2023-02-11T05:28:16.998Z,8.30
2023-02-11T05:30:43.675Z,8.30
2023-02-11T05:33:10.314Z,8.30
2023-02-11T05:35:37.017Z,8.30
2023-02-11T05:38:03.661Z,8.30
2023-02-11T05:40:30.225Z,8.30
2023-02-11T05:42:56.814Z,8.30
2023-02-11T05:45:23.474Z,8.30
2023-02-11T05:47:50.105Z,8.30
2023-02-11T05:50:16.726Z,8.30
2023-02-11T05:52:43.364Z,8.30
2023-02-11T05:55:10.252Z,8.30
2023-02-11T05:57:36.875Z,8.30
2023-02-11T06:00:03.482Z,8.30
2023-02-11T06:02:39.045Z,8.30
2023-02-11T06:05:25.856Z,8.30
2023-02-11T06:07:52.568Z,8.30
2023-02-11T06:10:20.313Z,8.30
2023-02-11T06:12:46.935Z,8.40
2023-02-11T06:15:14.818Z,8.40
2023-02-11T06:17:41.458Z,8.30
2023-02-11T06:20:08.522Z,8.40
2023-02-11T06:22:35.358Z,8.40
2023-02-11T06:25:03.272Z,8.40
2023-02-11T06:27:29.968Z,8.40
2023-02-11T06:29:56.596Z,8.40
2023-02-11T06:32:43.331Z,8.40
2023-02-11T06:35:12.045Z,8.40
2023-02-11T06:37:39.062Z,8.40
2023-02-11T06:40:05.715Z,8.40
2023-02-11T06:42:32.390Z,8.50
2023-02-11T06:45:01.279Z,8.40
2023-02-11T06:47:27.899Z,8.40
2023-02-11T06:49:54.515Z,8.40
2023-02-11T06:52:21.108Z,8.40
2023-02-11T06:54:47.964Z,8.40
2023-02-11T06:57:14.586Z,8.50
2023-02-11T06:59:41.366Z,8.50
2023-02-11T07:02:08.034Z,8.50
2023-02-11T07:04:36.866Z,8.50
2023-02-11T07:07:03.444Z,8.50
2023-02-11T07:12:17.579Z,8.50
2023-02-11T07:17:40.371Z,8.50
2023-02-11T07:20:07.063Z,8.50
2023-02-11T07:22:33.674Z,8.50
2023-02-11T07:25:02.483Z,8.50
2023-02-11T07:27:29.095Z,8.50
2023-02-11T07:29:55.673Z,8.50
2023-02-11T07:32:22.297Z,8.50
2023-02-11T07:34:50.307Z,8.50
2023-02-11T07:37:17.001Z,8.50
2023-02-11T07:39:43.585Z,8.50
2023-02-11T07:42:10.225Z,8.50
2023-02-11T07:44:37.055Z,8.50
2023-02-11T07:47:03.757Z,8.50
2023-02-11T07:49:30.384Z,8.60
2023-02-11T07:51:56.982Z,8.50
2023-02-11T07:54:23.639Z,8.60
2023-02-11T07:56:50.287Z,8.60
2023-02-11T07:59:16.997Z,8.60
2023-02-11T08:01:43.686Z,8.60
2023-02-11T08:04:10.322Z,8.70
2023-02-11T08:06:57.912Z,8.70
2023-02-11T08:09:25.697Z,8.70
2023-02-11T08:11:52.273Z,8.70
2023-02-11T08:14:20.418Z,8.80
2023-02-11T08:17:05.792Z,8.80
2023-02-11T08:19:35.173Z,8.80
2023-02-11T08:22:01.962Z,8.80
2023-02-11T08:24:28.602Z,8.80
2023-02-11T08:26:55.222Z,8.80
2023-02-11T08:29:22.189Z,8.80
2023-02-11T08:31:48.861Z,8.90
2023-02-11T08:34:18.256Z,8.90
2023-02-11T08:36:47.022Z,8.90
2023-02-11T08:39:19.731Z,9.00
2023-02-11T08:41:46.847Z,9.00
2023-02-11T08:44:13.476Z,9.10
2023-02-11T08:46:58.913Z,9.10
2023-02-11T08:49:25.580Z,9.20
2023-02-11T08:51:52.444Z,9.20
2023-02-11T08:54:19.416Z,9.20
2023-02-11T08:56:48.196Z,9.30
2023-02-11T08:59:15.707Z,9.40
2023-02-11T09:01:44.100Z,9.40
2023-02-11T09:04:10.906Z,9.40
2023-02-11T09:06:38.694Z,9.50
2023-02-11T09:09:05.440Z,9.50
2023-02-11T09:11:32.033Z,9.50
2023-02-11T09:13:58.982Z,9.50
2023-02-11T09:16:28.011Z,9.50
2023-02-11T09:18:54.752Z,9.60
2023-02-11T09:21:21.464Z,9.60
2023-02-11T09:23:48.315Z,9.60
2023-02-11T09:26:17.080Z,9.60
2023-02-11T09:28:43.708Z,9.60
2023-02-11T09:31:10.436Z,9.70
2023-02-11T09:33:37.079Z,9.70
2023-02-11T09:36:24.400Z,9.70
2023-02-11T09:38:51.019Z,9.80
2023-02-11T09:41:17.604Z,9.80
2023-02-11T09:43:44.262Z,9.80
2023-02-11T09:46:29.968Z,9.90
2023-02-11T09:48:56.658Z,9.90
2023-02-11T09:51:24.224Z,9.90
2023-02-11T09:53:51.086Z,9.90
2023-02-11T09:56:18.868Z,9.90
2023-02-11T09:58:45.602Z,10.00
2023-02-11T10:01:12.386Z,10.00
2023-02-11T10:03:39.054Z,10.00
2023-02-11T10:06:24.625Z,10.10
2023-02-11T10:08:51.266Z,10.10
2023-02-11T10:11:31.009Z,10.10
2023-02-11T10:13:58.454Z,10.10
2023-02-11T10:16:46.064Z,10.20
2023-02-11T10:19:13.955Z,10.20
2023-02-11T10:21:43.691Z,10.30
2023-02-11T10:24:10.287Z,10.30
2023-02-11T10:26:38.227Z,10.20
2023-02-11T10:29:04.867Z,10.20
2023-02-11T10:31:31.548Z,10.20
2023-02-11T10:33:58.219Z,10.20
2023-02-11T10:39:28.222Z,10.30
2023-02-11T10:41:54.837Z,10.40
2023-02-11T10:44:21.474Z,10.40
2023-02-11T10:46:48.261Z,10.40
2023-02-11T10:49:14.906Z,10.40
2023-02-11T10:51:41.514Z,10.40
2023-02-11T10:54:08.337Z,10.40
2023-02-11T10:56:40.159Z,10.40
2023-02-11T10:59:06.794Z,10.50
2023-02-11T11:01:33.417Z,10.50
2023-02-11T11:04:00.373Z,10.60
2023-02-11T11:06:26.975Z,10.50
2023-02-11T11:08:53.591Z,10.50
2023-02-11T11:11:20.170Z,10.50
2023-02-11T11:13:46.814Z,10.50
2023-02-11T11:16:13.488Z,10.50
2023-02-11T11:18:40.224Z,10.50
2023-02-11T11:21:07.557Z,10.50
2023-02-11T11:23:34.164Z,10.60
2023-02-11T11:26:00.819Z,10.70
2023-02-11T11:28:27.520Z,10.70
2023-02-11T11:30:54.520Z,10.70
2023-02-11T11:33:21.392Z,10.70
2023-02-11T11:35:47.971Z,10.80
2023-02-11T11:38:14.596Z,10.80
2023-02-11T11:40:41.195Z,10.90
2023-02-11T11:43:07.821Z,10.90
2023-02-11T11:45:34.423Z,10.90
2023-02-11T11:48:01.060Z,10.90
2023-02-11T11:50:27.814Z,10.90
2023-02-11T11:52:54.404Z,10.90
2023-02-11T11:55:20.998Z,10.90
2023-02-11T11:57:47.598Z,10.90
2023-02-11T12:00:14.956Z,10.90
2023-02-11T12:02:41.702Z,11.00
2023-02-11T12:05:08.422Z,11.00
2023-02-11T12:07:35.121Z,11.00
2023-02-11T12:10:01.726Z,11.00
2023-02-11T12:12:32.125Z,11.00
2023-02-11T12:14:58.837Z,11.00
2023-02-11T12:17:25.414Z,11.10
2023-02-11T12:19:52.477Z,11.00
2023-02-11T12:22:19.194Z,11.10
2023-02-11T12:24:45.896Z,11.20
2023-02-11T12:27:13.537Z,11.10
2023-02-11T12:29:40.291Z,11.10
2023-02-11T12:32:07.913Z,11.20
2023-02-11T12:34:34.599Z,11.20
2023-02-11T12:37:02.836Z,11.20
2023-02-11T12:39:29.667Z,11.20
2023-02-11T12:42:15.225Z,11.30
2023-02-11T12:44:41.881Z,11.30
2023-02-11T12:47:08.539Z,11.30
2023-02-11T12:49:35.184Z,11.20
2023-02-11T12:52:01.904Z,11.20
2023-02-11T12:54:28.603Z,11.20
2023-02-11T12:56:55.200Z,11.30
2023-02-11T12:59:21.805Z,11.30
2023-02-11T13:01:48.378Z,11.40
2023-02-11T13:04:15.001Z,11.30
2023-02-11T13:06:41.637Z,11.30
2023-02-11T13:09:08.310Z,11.30
2023-02-11T13:11:34.998Z,11.30
2023-02-11T13:14:01.625Z,11.20
2023-02-11T13:16:29.508Z,11.20
2023-02-11T13:18:56.266Z,11.30
2023-02-11T13:21:22.869Z,11.30
2023-02-11T13:23:49.500Z,11.30
2023-02-11T13:26:16.102Z,11.30
2023-02-11T13:28:42.760Z,11.30
2023-02-11T13:31:09.687Z,11.30
2023-02-11T13:33:36.428Z,11.40
2023-02-11T13:36:04.739Z,11.40
2023-02-11T13:38:31.570Z,11.30
2023-02-11T13:40:58.172Z,11.30
2023-02-11T13:43:24.799Z,11.20
2023-02-11T13:45:51.481Z,11.30
2023-02-11T13:48:18.354Z,11.20
2023-02-11T13:50:46.592Z,11.20
2023-02-11T13:53:15.920Z,11.30
2023-02-11T13:55:42.662Z,11.30
2023-02-11T13:58:09.297Z,11.20
2023-02-11T14:00:36.341Z,11.20
2023-02-11T14:03:21.651Z,11.20
2023-02-11T14:06:07.025Z,11.10
2023-02-11T14:08:52.566Z,11.00
2023-02-11T14:11:19.177Z,11.00
2023-02-11T14:13:45.740Z,11.00
2023-02-11T14:16:20.320Z,11.00
2023-02-11T14:18:52.101Z,11.00
2023-02-11T14:21:18.714Z,10.90
2023-02-11T14:23:45.458Z,10.90
2023-02-11T14:26:12.082Z,10.90
2023-02-11T14:28:38.837Z,10.90
2023-02-11T14:31:05.560Z,10.90
2023-02-11T14:33:32.261Z,10.90
2023-02-11T14:35:58.834Z,10.90
2023-02-11T14:38:25.434Z,10.90
2023-02-11T14:40:52.300Z,10.80
2023-02-11T14:43:19.330Z,10.90
2023-02-11T14:45:46.133Z,10.80
2023-02-11T14:48:12.783Z,10.80
2023-02-11T14:50:39.368Z,10.80
2023-02-11T14:53:06.270Z,10.70
2023-02-11T14:55:33.332Z,10.70
2023-02-11T14:57:59.973Z,10.70
2023-02-11T15:00:26.659Z,10.70
2023-02-11T15:02:53.706Z,10.70
2023-02-11T15:05:20.369Z,10.70
2023-02-11T15:07:47.006Z,10.70
2023-02-11T15:10:13.618Z,10.60
2023-02-11T15:12:40.273Z,10.70
2023-02-11T15:15:06.882Z,10.60
2023-02-11T15:17:33.523Z,10.60
2023-02-11T15:20:00.137Z,10.60
2023-02-11T15:22:26.969Z,10.60
2023-02-11T15:24:53.554Z,10.60
2023-02-11T15:27:21.092Z,10.60
2023-02-11T15:29:49.194Z,10.60
2023-02-11T15:32:16.795Z,10.50
2023-02-11T15:34:43.520Z,10.50
2023-02-11T15:37:10.165Z,10.50
2023-02-11T15:39:36.766Z,10.50
2023-02-11T15:42:03.350Z,10.50
2023-02-11T15:44:30.133Z,10.50
2023-02-11T15:46:56.844Z,10.40
2023-02-11T15:49:23.537Z,10.40
2023-02-11T15:51:50.683Z,10.40
2023-02-11T15:54:17.279Z,10.40
2023-02-11T15:56:44.194Z,10.40
2023-02-11T15:59:12.893Z,10.40
2023-02-11T16:01:40.089Z,10.40
2023-02-11T16:04:06.907Z,10.40
2023-02-11T16:06:33.572Z,10.40
2023-02-11T16:09:00.216Z,10.30
2023-02-11T16:11:26.841Z,10.30
2023-02-11T16:13:53.539Z,10.30
2023-02-11T16:16:20.295Z,10.30
2023-02-11T16:18:52.024Z,10.20
2023-02-11T16:21:22.118Z,10.20
2023-02-11T16:23:48.695Z,10.20
2023-02-11T16:26:15.270Z,10.20
2023-02-11T16:28:41.901Z,10.20
2023-02-11T16:31:09.660Z,10.20
2023-02-11T16:33:36.347Z,10.10
2023-02-11T16:36:03.985Z,10.10
2023-02-11T16:38:30.600Z,10.10
2023-02-11T16:40:57.215Z,10.10
2023-02-11T16:43:23.887Z,10.00
2023-02-11T16:45:50.814Z,10.00
2023-02-11T16:48:18.184Z,10.00
2023-02-11T16:50:45.296Z,10.00
2023-02-11T16:53:12.123Z,10.00
2023-02-11T16:55:38.914Z,9.90
2023-02-11T16:58:06.489Z,9.90
2023-02-11T17:00:33.113Z,9.90
2023-02-11T17:02:59.741Z,9.90
2023-02-11T17:05:27.241Z,9.80
2023-02-11T17:07:53.850Z,9.90
2023-02-11T17:10:20.521Z,9.90
2023-02-11T17:12:47.935Z,9.80
2023-02-11T17:15:14.543Z,9.80
2023-02-11T17:17:41.116Z,9.80
2023-02-11T17:20:08.610Z,9.80
2023-02-11T17:22:35.313Z,9.80
2023-02-11T17:25:01.927Z,9.70
2023-02-11T17:27:28.554Z,9.70
2023-02-11T17:29:55.140Z,9.70
2023-02-11T17:32:21.884Z,9.70
2023-02-11T17:34:48.509Z,9.70
2023-02-11T17:37:15.116Z,9.70
2023-02-11T17:39:41.827Z,9.70
2023-02-11T17:42:08.820Z,9.70
2023-02-11T17:44:35.689Z,9.70
2023-02-11T17:47:02.282Z,9.70
2023-02-11T17:49:29.025Z,9.70
2023-02-11T17:51:55.668Z,9.60
2023-02-11T17:54:22.461Z,9.70
2023-02-11T17:56:50.795Z,9.60
2023-02-11T17:59:17.658Z,9.60
2023-02-11T18:01:44.310Z,9.60
2023-02-11T18:04:10.966Z,9.60
2023-02-11T18:06:37.678Z,9.60
2023-02-11T18:09:04.437Z,9.60
2023-02-11T18:11:31.123Z,9.60
2023-02-11T18:13:57.712Z,9.60
2023-02-11T18:16:25.130Z,9.50
2023-02-11T18:18:51.765Z,9.60
2023-02-11T18:21:18.501Z,9.60
2023-02-11T18:23:45.117Z,9.60
2023-02-11T18:26:12.008Z,9.60
2023-02-11T18:28:38.648Z,9.60
2023-02-11T18:31:05.306Z,9.60
2023-02-11T18:33:32.038Z,9.50
2023-02-11T18:35:58.769Z,9.50
2023-02-11T18:38:25.353Z,9.50
2023-02-11T18:40:52.422Z,9.50
2023-02-11T18:43:19.015Z,9.50
2023-02-11T18:45:45.923Z,9.50
2023-02-11T18:48:12.601Z,9.50
2023-02-11T18:50:39.217Z,9.50
2023-02-11T18:53:05.818Z,9.50
2023-02-11T18:55:32.552Z,9.40
2023-02-11T18:57:59.183Z,9.40
2023-02-11T19:00:25.945Z,9.40
2023-02-11T19:02:53.149Z,9.40
2023-02-11T19:05:19.939Z,9.40
2023-02-11T19:07:46.589Z,9.40
2023-02-11T19:10:13.642Z,9.40
2023-02-11T19:12:41.988Z,9.40
2023-02-11T19:15:08.856Z,9.40
2023-02-11T19:17:35.496Z,9.40
2023-02-11T19:20:02.187Z,9.40
2023-02-11T19:22:28.968Z,9.40
2023-02-11T19:24:56.820Z,9.40
2023-02-11T19:27:23.510Z,9.40
2023-02-11T19:29:50.174Z,9.40
2023-02-11T19:32:16.818Z,9.40
2023-02-11T19:35:03.197Z,9.30
2023-02-11T19:37:29.815Z,9.30
2023-02-11T19:39:56.417Z,9.30
2023-02-11T19:42:25.258Z,9.30
2023-02-11T19:44:54.388Z,9.40
2023-02-11T19:47:27.517Z,9.40
2023-02-11T19:49:54.183Z,9.40
2023-02-11T19:52:20.754Z,9.40
2023-02-11T19:54:47.707Z,9.40
2023-02-11T19:57:14.338Z,9.40
2023-02-11T19:59:40.948Z,9.30
2023-02-11T20:02:08.015Z,9.30
2023-02-11T20:04:34.671Z,9.30
2023-02-11T20:07:01.343Z,9.30
2023-02-11T20:09:29.068Z,9.30
2023-02-11T20:11:55.661Z,9.30
2023-02-11T20:14:22.296Z,9.30
2023-02-11T20:16:50.085Z,9.30
2023-02-11T20:19:18.091Z,9.30
2023-02-11T20:21:46.793Z,9.30
2023-02-11T20:24:13.860Z,9.20
2023-02-11T20:26:42.335Z,9.20
2023-02-11T20:29:09.028Z,9.20
2023-02-11T20:31:35.773Z,9.20
2023-02-11T20:34:02.503Z,9.20
2023-02-11T20:36:31.789Z,9.30
2023-02-11T20:38:58.476Z,9.20
2023-02-11T20:41:25.147Z,9.20
2023-02-11T20:43:52.278Z,9.20
2023-02-11T20:46:19.119Z,9.20
2023-02-11T20:48:45.808Z,9.20
2023-02-11T20:51:12.374Z,9.20
2023-02-11T20:53:39.010Z,9.20
2023-02-11T20:56:07.607Z,9.20
2023-02-11T20:58:34.367Z,9.10
2023-02-11T21:01:00.993Z,9.20
2023-02-11T21:03:27.653Z,9.10
2023-02-11T21:05:56.766Z,9.10
2023-02-11T21:08:23.450Z,9.10
2023-02-11T21:10:50.021Z,9.10
2023-02-11T21:13:16.641Z,9.20
2023-02-11T21:15:45.434Z,9.20
2023-02-11T21:18:12.102Z,9.10
2023-02-11T21:20:38.836Z,9.10
2023-02-11T21:23:05.507Z,9.10
2023-02-11T21:25:34.329Z,9.10
2023-02-11T21:28:00.957Z,9.10
2023-02-11T21:30:27.561Z,9.20
2023-02-11T21:32:54.157Z,9.10
2023-02-11T21:35:21.941Z,9.10
2023-02-11T21:37:48.526Z,9.00
2023-02-11T21:40:15.257Z,9.00
2023-02-11T21:42:41.866Z,9.10
2023-02-11T21:45:09.733Z,9.00
2023-02-11T21:47:36.446Z,9.10
2023-02-11T21:50:03.079Z,9.00
2023-02-11T21:52:29.698Z,8.90
2023-02-11T21:54:56.415Z,8.90
2023-02-11T21:57:23.270Z,9.00
2023-02-11T21:59:49.908Z,9.00
2023-02-11T22:02:16.511Z,9.00
2023-02-11T22:04:45.334Z,9.00
2023-02-11T22:07:12.657Z,8.90
2023-02-11T22:09:39.325Z,8.90
2023-02-11T22:12:06.018Z,8.90
2023-02-11T22:14:32.634Z,8.90
2023-02-11T22:16:59.311Z,8.90
2023-02-11T22:19:26.302Z,8.90
2023-02-11T22:21:52.964Z,8.90
2023-02-11T22:24:19.555Z,8.90
2023-02-11T22:27:05.252Z,8.90
2023-02-11T22:29:31.826Z,8.90
2023-02-11T22:31:58.483Z,8.90
2023-02-11T22:34:25.262Z,8.90
2023-02-11T22:36:51.816Z,8.80
2023-02-11T22:39:18.542Z,8.80
2023-02-11T22:41:45.153Z,8.70
2023-02-11T22:44:11.881Z,8.70
2023-02-11T22:46:39.544Z,8.70
2023-02-11T22:49:07.096Z,8.70
2023-02-11T22:51:33.678Z,8.70
2023-02-11T22:54:00.373Z,8.70
2023-02-11T22:56:26.999Z,8.70
2023-02-11T22:58:53.702Z,8.70
2023-02-11T23:01:20.526Z,8.70
2023-02-11T23:03:47.172Z,8.70
2023-02-11T23:06:14.786Z,8.70
2023-02-11T23:08:42.875Z,8.70
2023-02-11T23:11:09.763Z,8.70
2023-02-11T23:13:36.424Z,8.70
2023-02-11T23:16:03.040Z,8.80
2023-02-11T23:18:29.674Z,8.70
2023-02-11T23:20:56.276Z,8.70
2023-02-11T23:23:22.878Z,8.70
2023-02-11T23:25:49.520Z,8.70
2023-02-11T23:28:16.170Z,8.70
2023-02-11T23:30:42.877Z,8.80
2023-02-11T23:33:09.583Z,8.80
2023-02-11T23:35:36.396Z,8.70
2023-02-11T23:38:03.009Z,8.70
2023-02-11T23:40:29.600Z,8.80
2023-02-11T23:42:56.223Z,8.70
2023-02-11T23:45:22.862Z,8.70
2023-02-11T23:47:49.507Z,8.70
2023-02-11T23:50:16.071Z,8.70
2023-02-11T23:52:42.732Z,8.70
2023-02-11T23:55:09.320Z,8.70
2023-02-11T23:57:36.000Z,8.60
